Home > Products > Valid Products > TAF

000
FTUS44 KFWD 211500 AAA
TAFACT
TAF AMD
KACT 211505Z 2115/2212 15007KT P6SM OVC018
     FM211800 18010KT P6SM OVC025
     FM212100 16008KT P6SM SCT025 BKN035=



000
FTUS44 KFWD 211500 AAA
TAFDFW
TAF AMD
KDFW 211505Z 2115/2218 16010KT P6SM BKN025 OVC035
      TEMPO 2115/2117 BKN015
     FM211800 17013KT P6SM BKN035
     FM221500 22015KT P6SM SCT025 BKN250=



000
FTUS44 KFWD 211500 AAA
TAFFTW
TAF AMD
KFTW 211505Z 2115/2212 16010KT P6SM BKN025 OVC035
      TEMPO 2115/2117 BKN015
     FM211800 17013KT P6SM BKN035=



000
FTUS44 KFWD 211100 RRA
TAFDFW
TAF
KDFW 211141Z 2112/2218 15008KT P6SM BKN025 OVC035
      TEMPO 2112/2116 BKN015
     FM211800 17013KT P6SM BKN035
     FM221500 22015KT P6SM SCT025 BKN250=



000
FTUS44 KFWD 211100 RRA
TAFFTW
TAF
KFTW 211141Z 2112/2212 15005KT 4SM BR SCT015 OVC025
      TEMPO 2112/2116 BKN015
     FM211800 17013KT P6SM BKN035=



000
FTUS44 KFWD 211100 RRA
TAFACT
TAF
KACT 211141Z 2112/2212 14006KT P6SM SCT009 OVC018
      TEMPO 2112/2116 5SM BR BKN009
     FM211800 18010KT P6SM OVC025
     FM212100 16008KT P6SM SCT025 BKN035=



000
FTUS44 KFWD 210900 AAB
TAFFTW
TAF AMD
KFTW 210909Z 2109/2206 15005KT 4SM BR SCT009 OVC025
      TEMPO 2109/2112 BKN008
     FM211200 15006KT 3SM BR OVC008
     FM211600 16010KT P6SM BKN009 OVC015
     FM211800 17012KT P6SM BKN018
     FM220500 17010KT 5SM BR OVC008=



000
FTUS44 KFWD 210900 AAB
TAFDFW
TAF AMD
KDFW 210909Z 2109/2212 16006KT P6SM SCT010 OVC029
      TEMPO 2109/2111 5SM BR BKN010
     FM211100 16007KT 5SM BR OVC008
     FM211800 17012KT P6SM BKN015
     FM220500 17010KT 5SM BR OVC008=



000
FTUS44 KFWD 210900 AAB
TAFACT
TAF AMD
KACT 210909Z 2109/2206 14006KT P6SM SCT009 OVC018
     FM211100 15003KT 5SM BR BKN008 OVC015
      TEMPO 2112/2116 3SM BR OVC005
     FM211600 17007KT 5SM BR OVC010
     FM211800 18010KT P6SM OVC015
     FM212100 16008KT P6SM BKN025=



000
FTUS44 KFWD 210800 AAA
TAFFTW
TAF AMD
KFTW 210814Z 2108/2206 16007KT 4SM BR BKN009 OVC025
      TEMPO 2112/2116 3SM BR OVC005
     FM211900 17012KT P6SM BKN015
     FM220500 17010KT 5SM BR OVC008=



000
FTUS44 KFWD 210800 AAA
TAFDFW
TAF AMD
KDFW 210814Z 2108/2212 15005KT P6SM BKN010 OVC029
     FM211000 16006KT 5SM BR OVC008
      TEMPO 2112/2116 3SM BR OVC005
     FM211900 17012KT P6SM BKN015
     FM220500 17010KT 5SM BR OVC008=



000
FTUS44 KFWD 210800 AAA
TAFACT
TAF AMD
KACT 210814Z 2108/2206 14006KT P6SM SCT009 OVC020
     FM211000 15003KT 5SM BR OVC008
      TEMPO 2112/2116 3SM BR OVC005
     FM211600 17007KT 5SM BR OVC010
     FM211800 18010KT P6SM OVC015
     FM212100 16008KT P6SM BKN025=



000
FTUS44 KFWD 210500
TAFACT
TAF
KACT 210520Z 2106/2206 08003KT P6SM BKN012 OVC030
     FM210800 14003KT 4SM BR OVC008
     FM211100 15003KT 2SM BR OVC005
     FM211600 17007KT 5SM BR OVC010
     FM211800 18010KT P6SM OVC015
     FM212100 16008KT P6SM BKN025=



000
FTUS44 KFWD 210500
TAFDFW
TAF
KDFW 210520Z 2106/2212 14004KT P6SM BKN012 OVC030
     FM210800 16004KT P6SM OVC008
     FM211200 16004KT 3SM BR OVC005
     FM211600 17008KT P6SM OVC008
     FM211900 17011KT P6SM BKN015
     FM212100 16008KT P6SM BKN025=



000
FTUS44 KFWD 210500
TAFFTW
TAF
KFTW 210520Z 2106/2206 14004KT P6SM BKN012 OVC030
     FM210800 16004KT P6SM OVC008
     FM211200 16004KT 3SM BR OVC005
     FM211600 17008KT P6SM OVC008
     FM211900 17011KT P6SM BKN015
     FM212100 16008KT P6SM BKN025=



000
FTUS44 KFWD 210300 AAA
TAFACT
TAF AMD
KACT 210300Z 2103/2124 00000KT P6SM SCT010 OVC030
      TEMPO 2104/2106 BKN010
     FM210600 14003KT 4SM BR OVC008
     FM211100 15003KT 2SM BR OVC005
     FM211600 17007KT 5SM BR OVC010
     FM211800 18010KT P6SM OVC015=



000
FTUS44 KFWD 210300 AAA
TAFFTW
TAF AMD
KFTW 210300Z 2103/2124 14004KT P6SM BKN015 OVC030
     FM210700 16004KT P6SM OVC008
     FM211100 16004KT 3SM BR OVC005
     FM211600 16008KT P6SM OVC008
     FM211900 18011KT P6SM BKN015=



000
FTUS44 KFWD 210300 AAA
TAFDFW
TAF AMD
KDFW 210300Z 2103/2206 14004KT P6SM BKN015 OVC030
     FM210700 16004KT P6SM OVC008
     FM211100 16004KT 3SM BR OVC005
     FM211600 16008KT P6SM OVC008
     FM211900 18011KT P6SM BKN015=



000
FTUS44 KFWD 202300
TAFDFW
TAF
KDFW 202320Z 2100/2206 09003KT P6SM OVC012
     FM210700 13003KT P6SM OVC008
     FM211100 15004KT 3SM BR OVC005
     FM211600 16008KT P6SM OVC008
     FM211900 18011KT P6SM BKN015=



000
FTUS44 KFWD 202300
TAFFTW
TAF
KFTW 202320Z 2100/2124 09003KT P6SM OVC012
     FM210700 13003KT P6SM OVC008
     FM211100 15004KT 3SM BR OVC005
     FM211600 16008KT P6SM OVC008
     FM211900 18011KT P6SM BKN015=



000
FTUS44 KFWD 202300
TAFACT
TAF
KACT 202320Z 2100/2124 05005KT P6SM OVC015
     FM210500 12003KT 4SM BR OVC008
     FM211100 15003KT 2SM BR OVC005
     FM211600 17007KT 5SM BR OVC010
     FM211800 18010KT P6SM OVC015=



000
FTUS44 KFWD 202100 AAA
TAFACT
TAF AMD
KACT 202105Z 2021/2118 02005KT P6SM OVC018
     FM210500 14004KT P6SM OVC008
     FM211700 18010KT P6SM OVC015=



000
FTUS44 KFWD 202100 AAA
TAFFTW
TAF AMD
KFTW 202105Z 2021/2118 VRB03KT P6SM OVC012
     FM210000 15006KT P6SM OVC020
     FM210800 15005KT 4SM BR OVC005
     FM211700 18012KT P6SM OVC010=



000
FTUS44 KFWD 202100 AAA
TAFDFW
TAF AMD
KDFW 202105Z 2021/2124 VRB03KT P6SM OVC012
     FM210000 15006KT P6SM OVC020
     FM210800 15005KT 4SM BR OVC005
     FM211700 18012KT P6SM OVC010=



000
FTUS44 KFWD 201700
TAFACT
TAF
KACT 201740Z 2018/2118 02005KT P6SM OVC018
     FM210500 14004KT P6SM OVC008
     FM211700 18010KT P6SM OVC015=



000
FTUS44 KFWD 201700
TAFDFW
TAF
KDFW 201740Z 2018/2124 05005KT P6SM OVC012
      TEMPO 2018/2020 5SM -DZ BR OVC008
     FM202000 15006KT P6SM OVC018
     FM210800 15005KT 4SM BR OVC005
     FM211700 18012KT P6SM OVC010=



000
FTUS44 KFWD 201700
TAFFTW
TAF
KFTW 201740Z 2018/2118 05005KT P6SM OVC012
      TEMPO 2018/2020 5SM -DZ BR
     FM202000 15006KT P6SM OVC018
     FM210800 15005KT 4SM BR OVC005
     FM211700 18012KT P6SM OVC010=



000
FTUS44 KFWD 201500 AAA
TAFDFW
TAF AMD
KDFW 201511Z 2015/2118 05004KT P6SM OVC012
      TEMPO 2015/2017 4SM -DZ BR OVC007
     FM202000 14006KT P6SM BKN020
     FM210400 14004KT P6SM OVC015
     FM210800 15005KT 4SM BR OVC007
     FM211700 18012KT P6SM OVC010=



000
FTUS44 KFWD 201500 AAA
TAFFTW
TAF AMD
KFTW 201511Z 2015/2112 05004KT P6SM OVC012
      TEMPO 2015/2017 4SM BR
     FM202000 14006KT P6SM BKN020
     FM210400 14004KT P6SM OVC015
     FM210800 15005KT 4SM BR OVC007=



000
FTUS44 KFWD 201500 AAA
TAFACT
TAF AMD
KACT 201511Z 2015/2112 04005KT P6SM OVC018
      TEMPO 2015/2017 5SM BR BKN009
     FM202100 10006KT P6SM BKN020
     FM210500 14004KT P6SM OVC010=



000
FTUS44 KFWD 201100
TAFFTW
TAF
KFTW 201140Z 2012/2112 01005KT 5SM BR SCT007 OVC018
      TEMPO 2012/2016 3SM BR OVC007
     FM201600 10005KT P6SM OVC012
     FM202000 14006KT P6SM BKN020
     FM210400 14004KT P6SM OVC015
     FM210800 15005KT 4SM BR OVC007=



000
FTUS44 KFWD 201100
TAFACT
TAF
KACT 201140Z 2012/2112 34007KT 6SM BR SCT009 OVC015
      TEMPO 2012/2016 4SM BR BKN009
     FM201600 04005KT P6SM OVC018
     FM202100 10006KT P6SM BKN020
     FM210500 14004KT P6SM OVC010=



000
FTUS44 KFWD 201100
TAFDFW
TAF
KDFW 201140Z 2012/2118 01005KT P6SM BKN009 OVC020
     FM201600 10005KT P6SM OVC012
     FM202000 14006KT P6SM BKN020
     FM210400 14004KT P6SM OVC015
     FM210800 15005KT 4SM BR OVC007
     FM211700 18012KT P6SM OVC010=



000
FTUS44 KFWD 200900 AAA
TAFDFW
TAF AMD
KDFW 200905Z 2009/2112 36007KT P6SM OVC010
     FM201000 01005KT 6SM BR OVC009
      TEMPO 2012/2015 4SM -DZ BR
     FM201600 10005KT P6SM OVC012
     FM202000 14006KT P6SM BKN020
     FM210400 14004KT P6SM OVC015
     FM210900 15005KT 4SM BR OVC007=



000
FTUS44 KFWD 200900 AAA
TAFFTW
TAF AMD
KFTW 200905Z 2009/2106 35005KT 5SM BR SCT008 OVC015
     FM201100 01005KT 5SM BR OVC008
      TEMPO 2012/2015 3SM -DZ BR
     FM201600 10005KT P6SM OVC012
     FM202000 14006KT P6SM BKN020
     FM210400 14004KT P6SM OVC015=



000
FTUS44 KFWD 200900 AAA
TAFACT
TAF AMD
KACT 200905Z 2009/2106 34007KT 6SM BR SCT009 OVC015
     FM201000 35005KT 5SM BR OVC009
     FM201700 04005KT P6SM OVC010
     FM202100 10006KT P6SM BKN020
     FM210500 14004KT P6SM OVC010=



000
FTUS44 KFWD 200500
TAFACT
TAF
KACT 200525Z 2006/2106 34007KT P6SM SCT009 OVC020
     FM200800 35005KT 4SM BR OVC009
     FM201000 36003KT 2SM BR OVC006
     FM201800 04005KT P6SM OVC010
     FM202100 10006KT P6SM BKN020
     FM210500 14004KT P6SM OVC010=



000
FTUS44 KFWD 200500
TAFDFW
TAF
KDFW 200525Z 2006/2112 36005KT P6SM OVC010
     FM200730 36005KT 4SM BR OVC007
      TEMPO 2011/2015 2SM -DZ BR OVC004
     FM201700 10005KT P6SM OVC012
     FM202000 14006KT P6SM BKN020
     FM210400 14004KT P6SM OVC015
     FM210900 15005KT 4SM BR OVC007=



000
FTUS44 KFWD 200500
TAFFTW
TAF
KFTW 200525Z 2006/2106 36005KT 5SM BR SCT007 OVC010
     FM200700 36005KT 3SM BR OVC007
      TEMPO 2011/2015 2SM -DZ BR OVC004
     FM201700 10005KT P6SM OVC012
     FM202000 14006KT P6SM BKN020
     FM210400 14004KT P6SM OVC015=



000
FTUS44 KFWD 200300 AAB
TAFACT
TAF AMD
KACT 200307Z 2003/2024 36007KT P6SM SCT009 OVC013
      TEMPO 2005/2008 4SM BR BKN009
     FM200800 02003KT 2SM BR OVC006
     FM201700 06005KT P6SM OVC015
     FM201900 10006KT P6SM BKN025=



000
FTUS44 KFWD 200300 AAB
TAFFTW
TAF AMD
KFTW 200307Z 2003/2024 01007KT P6SM -DZ OVC011
      TEMPO 2003/2006 5SM -DZ BR OVC009
     FM200600 03004KT 4SM BR OVC009
      TEMPO 2009/2013 2SM -DZ BR OVC006
     FM201700 11005KT P6SM OVC015
     FM202000 16007KT P6SM BKN025=



000
FTUS44 KFWD 200300 AAB
TAFDFW
TAF AMD
KDFW 200307Z 2003/2106 01007KT P6SM -DZ OVC011
      TEMPO 2003/2006 5SM -DZ BR OVC009
     FM200600 03004KT 4SM BR OVC009
      TEMPO 2009/2013 2SM -DZ BR OVC006
     FM201700 11005KT P6SM OVC015
     FM202000 16007KT P6SM BKN025=



000
FTUS44 KFWD 200300 AAB
TAFACT
TAF AMD
KACT 200307Z 2003/2024 36007KT P6SM SCT009 OVC013
      TEMPO 2005/2008 4SM BR BKN009
     FM200800 02003KT 2SM BR OVC006
     FM201700 06005KT P6SM OVC015
     FM201900 10006KT P6SM BKN025=



000
FTUS44 KFWD 200300 AAB
TAFDFW
TAF AMD
KDFW 200307Z 2003/2106 01007KT P6SM -DZ OVC011
      TEMPO 2003/2006 5SM -DZ BR OVC009
     FM200600 03004KT 4SM BR OVC009
      TEMPO 2009/2013 2SM -DZ BR OVC006
     FM201700 11005KT P6SM OVC015
     FM202000 16007KT P6SM BKN025=



000
FTUS44 KFWD 200300 AAB
TAFFTW
TAF AMD
KFTW 200307Z 2003/2024 01007KT P6SM -DZ OVC011
      TEMPO 2003/2006 5SM -DZ BR OVC009
     FM200600 03004KT 4SM BR OVC009
      TEMPO 2009/2013 2SM -DZ BR OVC006
     FM201700 11005KT P6SM OVC015
     FM202000 16007KT P6SM BKN025=



000
FTUS44 KFWD 200200 AAA
TAFFTW
TAF AMD
KFTW 200233Z 2003/2024 01007KT P6SM OVC011
      TEMPO 2003/2006 -DZ OVC009
     FM200600 03004KT 5SM BR OVC009
      TEMPO 2009/2013 2SM -DZ OVC006
     FM201700 11005KT P6SM OVC015
     FM202000 16007KT P6SM BKN025=



000
FTUS44 KFWD 200200 AAA
TAFDFW
TAF AMD
KDFW 200233Z 2003/2106 01007KT P6SM OVC011
      TEMPO 2003/2006 -DZ OVC009
     FM200600 03004KT 5SM BR OVC009
      TEMPO 2009/2013 2SM -DZ OVC006
     FM201700 11005KT P6SM OVC015
     FM202000 16007KT P6SM BKN025=



000
FTUS44 KFWD 200100 AAA
TAFACT
TAF AMD
KACT 200140Z 2002/2024 36007KT P6SM OVC013
      TEMPO 2004/2008 4SM BR
     FM200800 02003KT 2SM BR OVC006
     FM201700 06005KT P6SM OVC015
     FM201900 10006KT P6SM BKN025=



000
FTUS44 KFWD 200100 AAA
TAFACT
TAF AMD
KACT 200140Z 2002/2024 36007KT P6SM OVC013
      TEMPO 2004/2008 4SM BR
     FM200800 02003KT 2SM BR OVC006
     FM201700 06005KT P6SM OVC015
     FM201900 10006KT P6SM BKN025=



000
FTUS44 KFWD 192300
TAFACT
TAF
KACT 192334Z 2000/2024 01013KT P6SM OVC009
      TEMPO 2003/2007 36005KT 4SM BR
     FM200800 02003KT 2SM BR OVC005
     FM201700 06005KT P6SM OVC015
     FM201900 10006KT P6SM BKN025=



000
FTUS44 KFWD 192300
TAFFTW
TAF
KFTW 192334Z 2000/2024 36007KT P6SM OVC013
      TEMPO 2000/2001 OVC010
     FM200600 03004KT 4SM BR OVC009
     FM201700 11005KT P6SM OVC015
     FM202000 16007KT P6SM BKN025=



000
FTUS44 KFWD 192300
TAFDFW
TAF
KDFW 192334Z 2000/2106 36007KT P6SM OVC013
      TEMPO 2000/2001 OVC010
     FM200600 03004KT 4SM BR OVC009
     FM201700 11005KT P6SM OVC015
     FM202000 16007KT P6SM BKN025=



000
FTUS44 KFWD 192100 AAC
TAFDFW
TAF AMD
KDFW 192111Z 1921/2024 01008KT P6SM OVC012
     FM200100 03005KT P6SM OVC020
     FM200600 03003KT 5SM BR OVC015
     FM201800 12006KT P6SM BKN025=



000
FTUS44 KFWD 192100 AAC
TAFFTW
TAF AMD
KFTW 192111Z 1921/2018 01008KT P6SM OVC012
      TEMPO 1921/1922 5SM BR OVC009
     FM200100 03005KT P6SM OVC020
     FM200600 03003KT 5SM BR OVC015=



000
FTUS44 KFWD 192100 AAB
TAFDFW
TAF AMD
KDFW 192108Z 1921/2024 01008KT P6SM OVC012
     FM200100 03005KT P6SM OVC020
     FM200600 03003KT 5SM BR OVC015
     FM201800 12006KT P6SM BKN025=



000
FTUS44 KFWD 192100 AAC
TAFACT
TAF AMD
KACT 192108Z 1921/2018 01008KT P6SM OVC007
     FM200000 01006KT P6SM OVC015
     FM200800 02004KT 3SM BR OVC008=



000
FTUS44 KFWD 192100 AAB
TAFFTW
TAF AMD
KFTW 192108Z 1921/2018 01008KT P6SM OVC012
      TEMPO 1921/1922 P6SM OVC009
     FM200100 03005KT P6SM OVC020
     FM200600 03003KT 5SM BR OVC015=



000
FTUS44 KFWD 191900 AAA
TAFFTW
TAF AMD
KFTW 191927Z 1919/2018 01008KT 5SM BR BKN007 OVC010
     FM192100 02006KT P6SM OVC012
     FM200100 03005KT P6SM OVC020
     FM200600 03003KT 5SM BR OVC015=



000
FTUS44 KFWD 191900 AAA
TAFDFW
TAF AMD
KDFW 191927Z 1919/2024 01008KT 5SM BR BKN007 OVC010
     FM192100 02006KT P6SM OVC012
     FM200100 03005KT P6SM OVC020
     FM200600 03003KT 5SM BR OVC015
     FM201800 12006KT P6SM BKN025=



000
FTUS44 KFWD 191900 AAB
TAFACT
TAF AMD
KACT 191907Z 1919/2018 36008KT 4SM BR OVC005
     FM192100 01008KT 5SM BR OVC007
     FM200000 01006KT P6SM OVC015
     FM200800 02004KT 3SM BR OVC008=



000
FTUS44 KFWD 191900 AAA
TAFACT
TAF AMD
KACT 191905Z 1919/2018 36008KT P6SM OVC005
     FM192100 01008KT 5SM BR OVC007
     FM200000 01006KT P6SM OVC015
     FM200800 02004KT 3SM BR OVC008=



000
FTUS44 KFWD 191700
TAFFTW
TAF
KFTW 191724Z 1918/2018 01008KT 5SM BR BKN007 OVC010
      TEMPO 1918/1919 3SM BR BKN005
     FM192000 02006KT P6SM OVC012
     FM200000 03005KT P6SM OVC020
     FM200600 03003KT 5SM BR OVC015=



000
FTUS44 KFWD 191700
TAFDFW
TAF
KDFW 191724Z 1918/2024 01008KT 5SM BR BKN007 OVC010
      TEMPO 1918/1919 3SM BR BKN005
     FM192000 02006KT P6SM OVC012
     FM200000 03005KT P6SM OVC020
     FM200600 03003KT 5SM BR OVC015
     FM201800 12006KT P6SM BKN025=



000
FTUS44 KFWD 191700
TAFACT
TAF
KACT 191724Z 1918/2018 36008KT P6SM OVC007
     FM200000 01006KT P6SM OVC015
     FM200800 02004KT 3SM BR OVC008=



000
FTUS44 KFWD 191600 AAD
TAFACT
TAF AMD
KACT 191616Z 1916/2012 01006KT 5SM BR OVC005
     FM191700 02006KT 5SM BR BKN009
     FM191800 03008KT P6SM BKN012
     FM200800 36004KT 3SM BR OVC008=



000
FTUS44 KFWD 191600 AAC
TAFDFW
TAF AMD
KDFW 191616Z 1916/2018 02006KT 5SM BR BKN007 OVC010
      TEMPO 1916/1918 3SM BR BKN004
     FM191900 03006KT P6SM OVC012
     FM200000 03005KT P6SM OVC020
     FM200600 01003KT 5SM BR OVC015=



000
FTUS44 KFWD 191600 AAC
TAFFTW
TAF AMD
KFTW 191616Z 1916/2012 02006KT 5SM BR BKN007 OVC010
      TEMPO 1916/1918 3SM BR BKN004
     FM191900 03006KT P6SM OVC012
     FM200000 03005KT P6SM OVC020
     FM200600 01003KT 5SM BR OVC015=



000
FTUS44 KFWD 191500 AAC
TAFACT
TAF AMD
KACT 191506Z 1915/2012 01006KT 5SM -RA BR OVC005
     FM191700 02006KT 5SM BR BKN009
     FM191800 03008KT P6SM BKN012
     FM200800 36004KT 3SM BR OVC008=



000
FTUS44 KFWD 191500 AAB
TAFFTW
TAF AMD
KFTW 191504Z 1915/2012 02006KT 5SM BR BKN007 OVC010
      TEMPO 1915/1917 5SM BR BKN005
     FM191900 03006KT P6SM OVC012
     FM200000 03005KT P6SM OVC020
     FM200600 01003KT 5SM BR OVC015=



000
FTUS44 KFWD 191500 AAB
TAFDFW
TAF AMD
KDFW 191504Z 1915/2018 02006KT 5SM BR BKN007 OVC010
      TEMPO 1915/1917 5SM BR BKN005
     FM191900 03006KT P6SM OVC012
     FM200000 03005KT P6SM OVC020
     FM200600 01003KT 5SM BR OVC015=



000
FTUS44 KFWD 191500 AAB
TAFACT
TAF AMD
KACT 191504Z 1915/2012 01006KT 5SM -RA BR OVC006
     FM191600 02006KT 5SM BR BKN009
     FM191800 03008KT P6SM BKN012
     FM200800 36004KT 3SM BR OVC008=



000
FTUS44 KFWD 191400 CCA
TAFACT
TAF COR
KACT 191401Z 1914/2012 01004KT 5SM -RA BR OVC006
     FM191600 02006KT 5SM BR BKN009
     FM191800 03008KT P6SM BKN012
     FM200800 36004KT 3SM BR OVC008=



000
FTUS44 KFWD 191300 AAA
TAFACT
TAF AMD
KACT 191346Z 1914/2012 01004KT 5SM -RA BR OVC006
     FM191600 02006KT P6SM BKN009
     FM191800 03008KT 5SM BR BKN012
     FM200800 36004KT 3SM BR OVC008=



000
FTUS44 KFWD 191300 AAA
TAFACT
TAF AMD
KACT 191346Z 1914/2012 01004KT 5SM -RA BR OVC006
     FM191600 02006KT P6SM BKN009
     FM191800 03008KT 5SM BR BKN012
     FM200800 36004KT 3SM BR OVC008=



000
FTUS44 KFWD 191200 AAA
TAFDFW
TAF AMD
KDFW 191216Z 1912/2018 02006KT 5SM -RA BR SCT003 OVC006
      TEMPO 1912/1914 2SM -RA BR
     FM191500 03006KT 5SM BR BKN007 OVC010
     FM191900 03006KT P6SM OVC012
     FM200000 03005KT P6SM OVC020
     FM200600 01003KT 5SM BR OVC015=



000
FTUS44 KFWD 191200 AAA
TAFFTW
TAF AMD
KFTW 191216Z 1912/2012 36007KT 5SM -RA BR SCT003 BKN006
      TEMPO 1912/1914 3SM -RA BR OVC005
     FM191500 03006KT 5SM BR BKN007 OVC010
     FM191900 03006KT P6SM OVC012
     FM200000 03005KT P6SM OVC020
     FM200600 01003KT 5SM BR OVC015=



000
FTUS44 KFWD 191100 RRA
TAFDFW
TAF
KDFW 191141Z 1912/2018 02006KT 5SM -RA BR SCT003 OVC008
      TEMPO 1912/1915 2SM -RA BR OVC006
     FM192000 03006KT P6SM OVC012
     FM200000 03005KT P6SM OVC020
     FM200600 01003KT 5SM BR OVC015=



000
FTUS44 KFWD 191100 RRA
TAFFTW
TAF
KFTW 191141Z 1912/2012 02006KT 5SM -RA BR SCT003 OVC008
      TEMPO 1912/1915 2SM -RA BR OVC005
     FM192000 03006KT P6SM OVC012
     FM200000 03005KT P6SM OVC020
     FM200600 01003KT 5SM BR OVC015=



000
FTUS44 KFWD 191100 RRA
TAFACT
TAF
KACT 191141Z 1912/2012 36010KT 5SM -RA BR OVC006
      TEMPO 1912/1915 4SM -TSRA OVC006CB
     FM191800 03008KT 5SM BR OVC008
     FM192000 01006KT P6SM OVC012=



000
FTUS44 KFWD 190900 AAB
TAFACT
TAF AMD
KACT 190911Z 1909/2006 04006KT P6SM VCTS OVC006CB
      TEMPO 1909/1913 4SM -TSRA OVC006CB
     FM191800 03008KT 5SM BR OVC008
     FM192000 01006KT P6SM OVC012
     FM200000 03005KT P6SM OVC020=



000
FTUS44 KFWD 190900 AAC
TAFFTW
TAF AMD
KFTW 190911Z 1909/2006 03006KT 4SM BR VCSH OVC006
      TEMPO 1911/1915 5SM -TSRA OVC006CB
     FM191500 03008KT 5SM -RA BR OVC008
     FM192000 03006KT P6SM OVC012
     FM200000 03005KT P6SM OVC020=



000
FTUS44 KFWD 190900 AAB
TAFDFW
TAF AMD
KDFW 190911Z 1909/2012 05008KT P6SM OVC008
     FM191100 04006KT 5SM -RA SCT003 OVC008
      TEMPO 1911/1915 5SM -TSRA OVC006CB
     FM191500 03008KT 5SM -RA BR OVC008
     FM192000 03006KT P6SM OVC012
     FM200000 03005KT P6SM OVC020=



000
FTUS44 KFWD 190800 AAA
TAFACT
TAF AMD
KACT 190817Z 1908/2006 01006KT P6SM VCSH OVC007
      TEMPO 1909/1913 4SM -TSRA OVC007CB
     FM191900 36008KT 5SM BR OVC008
     FM192000 36008KT 5SM BR OVC012=



000
FTUS44 KFWD 190800 AAA
TAFACT
TAF AMD
KACT 190817Z 1908/2006 01006KT P6SM VCSH OVC007
      TEMPO 1909/1913 4SM -TSRA OVC007CB
     FM191900 36008KT 5SM BR OVC008
     FM192000 36008KT 5SM BR OVC012=



000
FTUS44 KFWD 190700 AAB
TAFFTW
TAF AMD
KFTW 190718Z 1907/2006 01006KT 4SM BR OVC005
     FM190900 02006KT 3SM -RA OVC005
     FM191500 02008KT 5SM BR OVC008
     FM192000 01006KT P6SM OVC012=



000
FTUS44 KFWD 190600 AAA
TAFDFW
TAF AMD
KDFW 190636Z 1907/2012 03006KT P6SM OVC008
     FM190800 03006KT 4SM -RA OVC006
     FM191500 03008KT 5SM BR OVC008
     FM192000 01006KT P6SM OVC012=



000
FTUS44 KFWD 190600 AAA
TAFFTW
TAF AMD
KFTW 190636Z 1907/2006 03006KT 4SM BR SCT006 OVC018
     FM190800 03006KT 3SM -RA OVC006
     FM191500 03008KT 5SM BR OVC008
     FM192000 01006KT P6SM OVC012=



000
FTUS44 KFWD 190500
TAFDFW
TAF
KDFW 190529Z 1906/2012 06005KT P6SM OVC015
     FM190800 03006KT 4SM -RA OVC007
     FM191400 03008KT 5SM BR OVC008
     FM192000 01006KT P6SM OVC012=



000
FTUS44 KFWD 190500
TAFACT
TAF
KACT 190529Z 1906/2006 05009KT P6SM OVC009
     FM190800 36008KT 4SM -RA OVC004
     FM191900 36008KT 5SM BR OVC008
     FM192000 36008KT 5SM BR OVC012=



000
FTUS44 KFWD 190500
TAFFTW
TAF
KFTW 190529Z 1906/2006 06005KT P6SM OVC015
     FM191000 03006KT 4SM -RA OVC007
     FM191400 03008KT 5SM BR OVC008
     FM192000 01006KT P6SM OVC012=



000
FTUS44 KFWD 190300 AAA
TAFFTW
TAF AMD
KFTW 190301Z 1903/1924 06005KT P6SM BKN010 OVC015
     FM191100 03008KT 2SM -RA BR OVC004
     FM191500 03008KT 5SM BR OVC008
     FM192000 01006KT P6SM OVC012=



000
FTUS44 KFWD 190300 AAA
TAFDFW
TAF AMD
KDFW 190301Z 1903/2006 06005KT P6SM BKN010 OVC015
     FM191100 03008KT 2SM -RA BR OVC004
     FM191500 03008KT 5SM BR OVC008
     FM192000 01006KT P6SM OVC012=



000
FTUS44 KFWD 190300 AAA
TAFACT
TAF AMD
KACT 190301Z 1903/1924 05009KT P6SM OVC009
     FM190900 36008KT 2SM RA BR OVC004
     FM192000 36008KT 5SM BR OVC008=



000
FTUS44 KFWD 182300
TAFFTW
TAF
KFTW 182330Z 1900/1924 01006KT P6SM BKN011 OVC015
     FM190300 03007KT 3SM BR OVC004
     FM191100 03008KT 2SM -RA BR OVC004
     FM191500 03008KT 5SM BR OVC008
     FM192000 01006KT P6SM OVC012=



000
FTUS44 KFWD 182300
TAFDFW
TAF
KDFW 182330Z 1900/2006 01006KT P6SM BKN011 OVC015
     FM190300 03007KT 3SM BR OVC004
     FM191100 03008KT 2SM -RA BR OVC004
     FM191500 03008KT 5SM BR OVC008
     FM192000 01006KT P6SM OVC012=



000
FTUS44 KFWD 182300
TAFACT
TAF
KACT 182330Z 1900/1924 05008KT P6SM OVC012
     FM190900 36008KT 2SM RA BR OVC004
     FM192000 36008KT 5SM BR OVC008=



000
FTUS44 KFWD 182100 AAB
TAFACT
TAF AMD
KACT 182101Z 1821/1918 03007KT P6SM OVC009
      TEMPO 1821/1901 BKN012
     FM190300 03007KT 4SM BR OVC006
     FM190900 36008KT 2SM RA BR OVC004=



000
FTUS44 KFWD 182100 AAB
TAFFTW
TAF AMD
KFTW 182101Z 1821/1918 03005KT P6SM OVC012
      TEMPO 1900/1903 OVC009
     FM190300 03007KT 3SM BR OVC004
     FM191200 03008KT 2SM -RA BR OVC004=



000
FTUS44 KFWD 182100 AAB
TAFDFW
TAF AMD
KDFW 182101Z 1821/1924 03005KT P6SM OVC012
      TEMPO 1900/1903 OVC009
     FM190300 03007KT 3SM BR OVC004
     FM191200 03008KT 2SM -RA BR OVC004
     FM192000 01006KT P6SM OVC012=



000
FTUS44 KFWD 181800 AAA
TAFFTW
TAF AMD
KFTW 181826Z 1818/1918 07004KT 3SM BR OVC005
     FM181930 05005KT 5SM BR OVC008
     FM190300 03007KT 3SM BR OVC004
     FM191200 03008KT 2SM -RA BR OVC004=



000
FTUS44 KFWD 181800 AAA
TAFACT
TAF AMD
KACT 181826Z 1818/1918 06005KT 5SM BR OVC007
      TEMPO 1818/1820 3SM BR OVC004
     FM190000 04007KT P6SM SCT007 OVC011
     FM190300 03007KT 5SM BR OVC006
     FM190900 36008KT 2SM RA BR OVC004=



000
FTUS44 KFWD 181800 AAA
TAFDFW
TAF AMD
KDFW 181826Z 1818/1924 07004KT 3SM BR OVC005
     FM181930 05005KT 5SM BR OVC008
     FM190300 03007KT 3SM BR OVC004
     FM191200 03008KT 2SM -RA BR OVC004
     FM192000 01006KT 6SM BR OVC012=



000
FTUS44 KFWD 181700
TAFDFW
TAF
KDFW 181739Z 1818/1924 07004KT 3SM BR OVC005
     FM182200 05005KT 5SM BR OVC009
     FM190300 03007KT 3SM BR OVC004
     FM191200 03008KT 2SM -RA BR OVC004
     FM192000 01006KT 6SM BR OVC012=



000
FTUS44 KFWD 181700
TAFFTW
TAF
KFTW 181739Z 1818/1918 07004KT 3SM BR OVC005
     FM182200 05005KT 5SM BR OVC009
     FM190300 03007KT 3SM BR OVC004
     FM191200 03008KT 2SM -RA BR OVC004=



000
FTUS44 KFWD 181700
TAFACT
TAF
KACT 181739Z 1818/1918 06005KT 5SM BR OVC007
     FM190000 04007KT P6SM SCT007 OVC011
     FM190300 03007KT 5SM BR OVC006
     FM190900 36008KT 2SM RA BR OVC004=



    US Dept of Commerce
    National Oceanic and Atmospheric Administration
    National Weather Service
    1325 East West Highway
    Silver Spring, MD 20910
    Page Author: NWS Internet Services Team
Disclaimer
Information Quality
Credits
Glossary
Privacy Policy
Freedom of Information Act (FOIA)
About Us
Career Opportunities